Satisfaction — WDF7649 — position and weather

sailwx.info

Track history (hours):
 
Tides and Currents Weather Stations Pressure Air Temp Water Temp Dewpoint Dewpoint Depression Visibility Wind Speed Wind Dir Waves Ship Positions

Satisfaction

Owner: Foley, Michael W, Redmond, WA. More information available from US FCC via Universal Licensing System and Coast Guard Vessel Documentation Center.

Last reported at 2017-Aug-08 03:38 UTC. Time now 2017-Nov-18 23:37 UTC.
Position N 47°39' W 122°12'.
Warning: this ship's position is months out of date.

Length 16 m.

Type: Pleasure craft. MMSI: 367486660.

Date/timePositionNaut miles runAvg speedWind from/ knotsBaromVisibWave heightAir tempDewpointWater temp
2017-Aug-08 03:38N 47°39' W 122°12'0 0.0
2017-Aug-08 03:30N 47°39' W 122°12'0 0.0
2017-Aug-08 02:59N 47°39' W 122°12'1 1.1
2017-Aug-08 02:30N 47°39' W 122°13'4 6.4
2017-Aug-08 01:51N 47°39' W 122°19'2 4.5
2017-Aug-08 01:30N 47°39' W 122°22'2 3.3
2017-Aug-08 01:00N 47°40' W 122°24'1 1.7
2017-Aug-08 00:28N 47°41' W 122°24'0 0.0
2017-Aug-07 23:58N 47°41' W 122°24'0 0.0
2017-Aug-07 23:28N 47°41' W 122°24'0 0.0
2017-Aug-07 22:46N 47°41' W 122°24'0 0.0
2017-Aug-07 22:04N 47°41' W 122°24'0 0.0
2017-Aug-07 21:58N 47°41' W 122°24'0 0.0
2017-Aug-07 21:28N 47°41' W 122°24'0 0.0
2017-Aug-07 20:58N 47°41' W 122°24'0 0.0
2017-Aug-07 20:28N 47°41' W 122°24'0 0.0
2017-Aug-07 19:52N 47°41' W 122°24'0 0.0
2017-Aug-07 19:28N 47°41' W 122°24'0 0.0
2017-Aug-07 18:58N 47°41' W 122°24'0 0.0
2017-Aug-07 18:28N 47°41' W 122°24'0 0.0
2017-Aug-06 00:41N 47°41' W 122°24'0 0.0
2017-Aug-06 00:29N 47°41' W 122°24'0 0.0
2017-Aug-05 23:56N 47°41' W 122°24'0 0.0
2017-Aug-05 21:59N 47°41' W 122°24'3 5.8
2017-Aug-05 21:24N 47°44' W 122°25'4711.6
2017-Aug-05 17:22N 48°26' W 122°57'411.0
2017-Aug-05 17:00N 48°30' W 122°57'3 6.7
2017-Aug-05 16:30N 48°32' W 123°01'0 0.2
2017-Aug-05 15:57N 48°32' W 123°01'0 0.0
2017-Aug-05 15:24N 48°32' W 123°01'0 0.0
2017-Aug-05 14:54N 48°32' W 123°01'0 0.0
2017-Aug-05 14:30N 48°32' W 123°01'0 0.0
2017-Aug-05 13:57N 48°32' W 123°01'0 0.0
2017-Aug-05 13:24N 48°32' W 123°01'0 0.0
2017-Aug-05 13:00N 48°32' W 123°01'0 0.0
2017-Aug-05 12:27N 48°32' W 123°01'0 0.0
2017-Aug-05 11:54N 48°32' W 123°01'0 0.0
2017-Aug-05 11:24N 48°32' W 123°01'0 0.0
2017-Aug-05 11:00N 48°32' W 123°01'0 0.0
2017-Aug-05 10:24N 48°32' W 123°01'0 0.0
2017-Aug-05 10:00N 48°32' W 123°01'0 0.0
2017-Aug-05 09:30N 48°32' W 123°01'0 0.0
2017-Aug-05 09:00N 48°32' W 123°01'0 0.0
2017-Aug-05 08:27N 48°32' W 123°01'0 0.0
2017-Aug-05 07:57N 48°32' W 123°01'0 0.0
2017-Aug-05 07:24N 48°32' W 123°01'0 0.0
2017-Aug-05 07:00N 48°32' W 123°01'0 0.0
2017-Aug-05 06:24N 48°32' W 123°01'0 0.0
2017-Aug-05 06:00N 48°32' W 123°01'0 0.0
2017-Aug-05 05:24N 48°32' W 123°01'0 0.0
2017-Aug-05 05:00N 48°32' W 123°01'0 0.0
2017-Aug-05 04:30N 48°32' W 123°01'0 0.0
2017-Aug-05 03:57N 48°32' W 123°01'0 0.0
2017-Aug-05 03:27N 48°32' W 123°01'0 0.0
2017-Aug-05 03:00N 48°32' W 123°01'0 0.0
2017-Aug-05 02:30N 48°32' W 123°01'0 0.0
2017-Aug-05 01:57N 48°32' W 123°01'0 0.0
2017-Aug-05 01:21N 48°32' W 123°01'0 0.0
2017-Aug-05 00:57N 48°32' W 123°01'0 0.0
2017-Aug-05 00:30N 48°32' W 123°01'0 0.0
2017-Aug-04 23:54N 48°32' W 123°01'0 0.0
2017-Aug-04 23:27N 48°32' W 123°01'0 0.0
2017-Aug-04 22:54N 48°32' W 123°01'0 0.0
2017-Aug-04 22:30N 48°32' W 123°01'0 0.0
2017-Aug-04 22:00N 48°32' W 123°01'0 0.0
2017-Aug-04 21:21N 48°32' W 123°01'0 0.0
2017-Aug-04 20:54N 48°32' W 123°01'0 0.0
2017-Aug-04 20:27N 48°32' W 123°01'0 0.0
2017-Aug-04 19:57N 48°32' W 123°01'0 0.0
2017-Aug-04 19:24N 48°32' W 123°01'0 0.2
2017-Aug-04 19:01N 48°32' W 123°01'3 5.5
2017-Aug-04 18:30N 48°32' W 122°57'2 3.2
2017-Aug-04 17:59N 48°31' W 122°55'0 0.0
2017-Aug-04 17:26N 48°31' W 122°55'0 0.0
2017-Aug-04 16:59N 48°31' W 122°55'0 0.0
2017-Aug-04 16:29N 48°31' W 122°55'0 0.0
2017-Aug-04 15:59N 48°31' W 122°55'0 0.0
2017-Aug-04 15:17N 48°31' W 122°55'0 0.0
2017-Aug-04 14:59N 48°31' W 122°55'0 0.0
2017-Aug-04 13:59N 48°31' W 122°55'0 0.0
2017-Aug-04 13:29N 48°31' W 122°55'0 0.0
2017-Aug-04 12:56N 48°31' W 122°55'0 0.0
2017-Aug-04 12:29N 48°31' W 122°55'0 0.0
2017-Aug-04 11:59N 48°31' W 122°55'0 0.0
2017-Aug-04 11:29N 48°31' W 122°55'0 0.0
2017-Aug-04 10:59N 48°31' W 122°55'0 0.0
2017-Aug-04 10:29N 48°31' W 122°55'0 0.0
2017-Aug-04 09:59N 48°31' W 122°55'0 0.0
2017-Aug-04 09:29N 48°31' W 122°55'0 0.0
2017-Aug-04 08:59N 48°31' W 122°55'0 0.0
2017-Aug-04 08:26N 48°31' W 122°55'0 0.0
2017-Aug-04 07:56N 48°31' W 122°55'0 0.0
2017-Aug-04 07:29N 48°31' W 122°55'0 0.0
2017-Aug-04 06:59N 48°31' W 122°55'0 0.0
2017-Aug-04 06:29N 48°31' W 122°55'0 0.0
2017-Aug-04 05:59N 48°31' W 122°55'0 0.0
2017-Aug-04 05:26N 48°31' W 122°55'0 0.0
2017-Aug-04 04:59N 48°31' W 122°55'0 0.0
2017-Aug-04 04:29N 48°31' W 122°55'0 0.0
2017-Aug-04 03:53N 48°31' W 122°55'0 0.0
2017-Aug-04 03:29N 48°31' W 122°55'0 0.0
2017-Aug-04 02:56N 48°31' W 122°55'0 0.0
2017-Aug-04 02:26N 48°31' W 122°55'0 0.0
2017-Aug-04 01:59N 48°31' W 122°55'0 0.0
2017-Aug-04 01:29N 48°31' W 122°55'0 0.0
2017-Aug-04 00:59N 48°31' W 122°55'0 0.0
2017-Aug-04 00:29N 48°31' W 122°55'0 0.0
2017-Aug-03 23:59N 48°31' W 122°55'0 0.0
2017-Aug-03 23:29N 48°31' W 122°55'0 0.0
2017-Aug-03 22:47N 48°31' W 122°55'0 0.0
2017-Aug-03 22:23N 48°31' W 122°55'0 0.0
2017-Aug-03 21:59N 48°31' W 122°55'0 0.0
2017-Aug-03 21:29N 48°31' W 122°55'0 0.0
2017-Aug-03 20:59N 48°31' W 122°55'0 0.0
2017-Aug-03 20:29N 48°31' W 122°55'0 0.0
2017-Aug-03 19:59N 48°31' W 122°55'0 0.0
2017-Aug-03 19:29N 48°31' W 122°55'0 0.0
2017-Aug-03 18:59N 48°31' W 122°55'0 0.0
2017-Aug-03 18:29N 48°31' W 122°55'0 0.0
2017-Aug-03 17:59N 48°31' W 122°55'0 0.0
2017-Aug-03 17:29N 48°31' W 122°55'0 0.0
2017-Aug-03 16:59N 48°31' W 122°55'0 0.0
2017-Aug-03 16:29N 48°31' W 122°55'0 0.0
2017-Aug-03 15:56N 48°31' W 122°55'0 0.0
2017-Aug-03 15:29N 48°31' W 122°55'0 0.0
2017-Aug-03 14:56N 48°31' W 122°55'0 0.0
2017-Aug-03 13:56N 48°31' W 122°55'0 0.0
2017-Aug-03 13:26N 48°31' W 122°55'0 0.0
2017-Aug-03 12:59N 48°31' W 122°55'0 0.0
2017-Aug-03 12:29N 48°31' W 122°55'0 0.0
2017-Aug-03 11:56N 48°31' W 122°55'0 0.0
2017-Aug-03 11:29N 48°31' W 122°55'0 0.0
2017-Aug-03 10:59N 48°31' W 122°55'0 0.0
2017-Aug-03 10:23N 48°31' W 122°55'0 0.0
2017-Aug-03 09:59N 48°31' W 122°55'0 0.0
2017-Aug-03 09:29N 48°31' W 122°55'0 0.0
2017-Aug-03 08:59N 48°31' W 122°55'0 0.0
2017-Aug-03 08:29N 48°31' W 122°55'0 0.0
2017-Aug-03 07:59N 48°31' W 122°55'0 0.0
2017-Aug-03 07:29N 48°31' W 122°55'0 0.0
2017-Aug-03 06:59N 48°31' W 122°55'0 0.0
2017-Aug-03 06:29N 48°31' W 122°55'0 0.0
2017-Aug-03 05:59N 48°31' W 122°55'0 0.0
2017-Aug-03 05:29N 48°31' W 122°55'0 0.0
2017-Aug-03 04:53N 48°31' W 122°55'0 0.0
2017-Aug-03 04:29N 48°31' W 122°55'0 0.0
2017-Aug-03 03:59N 48°31' W 122°55'0 0.0
2017-Aug-03 03:29N 48°31' W 122°55'0 0.0
2017-Aug-03 02:56N 48°31' W 122°55'0 0.0
2017-Aug-03 02:29N 48°31' W 122°55'0 0.0
2017-Aug-03 01:59N 48°31' W 122°55'0 0.0
2017-Aug-03 01:29N 48°31' W 122°55'0 0.0
2017-Aug-03 00:59N 48°31' W 122°55'0 0.0
2017-Aug-03 00:29N 48°31' W 122°55'0 0.0
2017-Aug-02 23:59N 48°31' W 122°55'0 0.0
2017-Aug-02 23:29N 48°31' W 122°55'0 0.0
2017-Aug-02 22:59N 48°31' W 122°55'0 0.0
2017-Aug-02 22:29N 48°31' W 122°55'0 0.0
2017-Aug-02 21:59N 48°31' W 122°55'0 0.1
2017-Aug-02 21:29N 48°31' W 122°55'0 0.9
2017-Aug-02 21:00N 48°31' W 122°55'3 5.7
2017-Aug-02 20:30N 48°33' W 122°59'9 7.8
2017-Aug-02 19:22N 48°37' W 123°10'1 1.4
2017-Aug-02 18:43N 48°37' W 123°09'0 0.0
2017-Aug-02 18:28N 48°37' W 123°09'0 0.0
2017-Aug-02 17:55N 48°37' W 123°09'0 0.0
2017-Aug-02 17:25N 48°37' W 123°09'0 0.0
2017-Aug-02 16:46N 48°37' W 123°09'0 0.0
2017-Aug-02 16:19N 48°37' W 123°09'0 0.0
2017-Aug-02 15:52N 48°37' W 123°09'0 0.0
2017-Aug-02 15:22N 48°37' W 123°09'0 0.0
2017-Aug-02 14:58N 48°37' W 123°09'0 0.0
2017-Aug-02 12:58N 48°37' W 123°09'0 0.0
2017-Aug-02 12:28N 48°37' W 123°09'0 0.0
2017-Aug-02 11:58N 48°37' W 123°09'0 0.0
2017-Aug-02 11:28N 48°37' W 123°09'0 0.0
2017-Aug-02 10:55N 48°37' W 123°09'0 0.0
2017-Aug-02 10:28N 48°37' W 123°09'0 0.0
2017-Aug-02 09:52N 48°37' W 123°09'0 0.0
2017-Aug-02 09:28N 48°37' W 123°09'0 0.0
2017-Aug-02 08:55N 48°37' W 123°09'0 0.0
2017-Aug-02 08:28N 48°37' W 123°09'0 0.0
2017-Aug-02 07:49N 48°37' W 123°09'0 0.0
2017-Aug-02 07:28N 48°37' W 123°09'0 0.0
2017-Aug-02 06:43N 48°37' W 123°09'0 0.0
2017-Aug-02 06:25N 48°37' W 123°09'0 0.0
2017-Aug-02 05:58N 48°37' W 123°09'0 0.0
2017-Aug-02 05:28N 48°37' W 123°09'0 0.0
2017-Aug-02 04:55N 48°37' W 123°09'0 0.0
2017-Aug-02 04:22N 48°37' W 123°09'0 0.0
2017-Aug-02 03:58N 48°37' W 123°09'0 0.0
2017-Aug-02 01:55N 48°37' W 123°09'  
2017-Jul-29 18:38N 48°36' W 123°20'1 9.2
2017-Jul-29 18:28N 48°35' W 123°19'4 9.1
2017-Jul-29 18:00N 48°31' W 123°17'5 9.9
2017-Jul-29 17:30N 48°26' W 123°13'5 9.7
2017-Jul-29 17:00N 48°23' W 123°19'  
Track history (hours):
 
Tides and Currents Weather Stations Pressure Air Temp Water Temp Dewpoint Dewpoint Depression Visibility Wind Speed Wind Dir Waves Ship Positions

Satisfaction

Owner: Foley, Michael W, Redmond, WA. More information available from US FCC via Universal Licensing System and Coast Guard Vessel Documentation Center.

Last reported at 2017-Aug-08 03:38 UTC. Time now 2017-Nov-18 23:37 UTC.
Position N 47°39' W 122°12'.
Warning: this ship's position is months out of date.

Length 16 m.

Type: Pleasure craft. MMSI: 367486660.

Date/timePositionNaut miles runAvg speedWind from/ knotsBaromVisibWave heightAir tempDewpointWater temp
2017-Aug-08 03:38N 47°39' W 122°12'0 0.0
2017-Aug-08 03:30N 47°39' W 122°12'0 0.0
2017-Aug-08 02:59N 47°39' W 122°12'1 1.1
2017-Aug-08 02:30N 47°39' W 122°13'4 6.4
2017-Aug-08 01:51N 47°39' W 122°19'2 4.5
2017-Aug-08 01:30N 47°39' W 122°22'2 3.3
2017-Aug-08 01:00N 47°40' W 122°24'1 1.7
2017-Aug-08 00:28N 47°41' W 122°24'0 0.0
2017-Aug-07 23:58N 47°41' W 122°24'0 0.0
2017-Aug-07 23:28N 47°41' W 122°24'0 0.0
2017-Aug-07 22:46N 47°41' W 122°24'0 0.0
2017-Aug-07 22:04N 47°41' W 122°24'0 0.0
2017-Aug-07 21:58N 47°41' W 122°24'0 0.0
2017-Aug-07 21:28N 47°41' W 122°24'0 0.0
2017-Aug-07 20:58N 47°41' W 122°24'0 0.0
2017-Aug-07 20:28N 47°41' W 122°24'0 0.0
2017-Aug-07 19:52N 47°41' W 122°24'0 0.0
2017-Aug-07 19:28N 47°41' W 122°24'0 0.0
2017-Aug-07 18:58N 47°41' W 122°24'0 0.0
2017-Aug-07 18:28N 47°41' W 122°24'0 0.0
2017-Aug-06 00:41N 47°41' W 122°24'0 0.0
2017-Aug-06 00:29N 47°41' W 122°24'0 0.0
2017-Aug-05 23:56N 47°41' W 122°24'0 0.0
2017-Aug-05 21:59N 47°41' W 122°24'3 5.8
2017-Aug-05 21:24N 47°44' W 122°25'4711.6
2017-Aug-05 17:22N 48°26' W 122°57'411.0
2017-Aug-05 17:00N 48°30' W 122°57'3 6.7
2017-Aug-05 16:30N 48°32' W 123°01'0 0.2
2017-Aug-05 15:57N 48°32' W 123°01'0 0.0
2017-Aug-05 15:24N 48°32' W 123°01'0 0.0
2017-Aug-05 14:54N 48°32' W 123°01'0 0.0
2017-Aug-05 14:30N 48°32' W 123°01'0 0.0
2017-Aug-05 13:57N 48°32' W 123°01'0 0.0
2017-Aug-05 13:24N 48°32' W 123°01'0 0.0
2017-Aug-05 13:00N 48°32' W 123°01'0 0.0
2017-Aug-05 12:27N 48°32' W 123°01'0 0.0
2017-Aug-05 11:54N 48°32' W 123°01'0 0.0
2017-Aug-05 11:24N 48°32' W 123°01'0 0.0
2017-Aug-05 11:00N 48°32' W 123°01'0 0.0
2017-Aug-05 10:24N 48°32' W 123°01'0 0.0
2017-Aug-05 10:00N 48°32' W 123°01'0 0.0
2017-Aug-05 09:30N 48°32' W 123°01'0 0.0
2017-Aug-05 09:00N 48°32' W 123°01'0 0.0
2017-Aug-05 08:27N 48°32' W 123°01'0 0.0
2017-Aug-05 07:57N 48°32' W 123°01'0 0.0
2017-Aug-05 07:24N 48°32' W 123°01'0 0.0
2017-Aug-05 07:00N 48°32' W 123°01'0 0.0
2017-Aug-05 06:24N 48°32' W 123°01'0 0.0
2017-Aug-05 06:00N 48°32' W 123°01'0 0.0
2017-Aug-05 05:24N 48°32' W 123°01'0 0.0
2017-Aug-05 05:00N 48°32' W 123°01'0 0.0
2017-Aug-05 04:30N 48°32' W 123°01'0 0.0
2017-Aug-05 03:57N 48°32' W 123°01'0 0.0
2017-Aug-05 03:27N 48°32' W 123°01'0 0.0
2017-Aug-05 03:00N 48°32' W 123°01'0 0.0
2017-Aug-05 02:30N 48°32' W 123°01'0 0.0
2017-Aug-05 01:57N 48°32' W 123°01'0 0.0
2017-Aug-05 01:21N 48°32' W 123°01'0 0.0
2017-Aug-05 00:57N 48°32' W 123°01'0 0.0
2017-Aug-05 00:30N 48°32' W 123°01'0 0.0
2017-Aug-04 23:54N 48°32' W 123°01'0 0.0
2017-Aug-04 23:27N 48°32' W 123°01'0 0.0
2017-Aug-04 22:54N 48°32' W 123°01'0 0.0
2017-Aug-04 22:30N 48°32' W 123°01'0 0.0
2017-Aug-04 22:00N 48°32' W 123°01'0 0.0
2017-Aug-04 21:21N 48°32' W 123°01'0 0.0
2017-Aug-04 20:54N 48°32' W 123°01'0 0.0
2017-Aug-04 20:27N 48°32' W 123°01'0 0.0
2017-Aug-04 19:57N 48°32' W 123°01'0 0.0
2017-Aug-04 19:24N 48°32' W 123°01'0 0.2
2017-Aug-04 19:01N 48°32' W 123°01'3 5.5
2017-Aug-04 18:30N 48°32' W 122°57'2 3.2
2017-Aug-04 17:59N 48°31' W 122°55'0 0.0
2017-Aug-04 17:26N 48°31' W 122°55'0 0.0
2017-Aug-04 16:59N 48°31' W 122°55'0 0.0
2017-Aug-04 16:29N 48°31' W 122°55'0 0.0
2017-Aug-04 15:59N 48°31' W 122°55'0 0.0
2017-Aug-04 15:17N 48°31' W 122°55'0 0.0
2017-Aug-04 14:59N 48°31' W 122°55'0 0.0
2017-Aug-04 13:59N 48°31' W 122°55'0 0.0
2017-Aug-04 13:29N 48°31' W 122°55'0 0.0
2017-Aug-04 12:56N 48°31' W 122°55'0 0.0
2017-Aug-04 12:29N 48°31' W 122°55'0 0.0
2017-Aug-04 11:59N 48°31' W 122°55'0 0.0
2017-Aug-04 11:29N 48°31' W 122°55'0 0.0
2017-Aug-04 10:59N 48°31' W 122°55'0 0.0
2017-Aug-04 10:29N 48°31' W 122°55'0 0.0
2017-Aug-04 09:59N 48°31' W 122°55'0 0.0
2017-Aug-04 09:29N 48°31' W 122°55'0 0.0
2017-Aug-04 08:59N 48°31' W 122°55'0 0.0
2017-Aug-04 08:26N 48°31' W 122°55'0 0.0
2017-Aug-04 07:56N 48°31' W 122°55'0 0.0
2017-Aug-04 07:29N 48°31' W 122°55'0 0.0
2017-Aug-04 06:59N 48°31' W 122°55'0 0.0
2017-Aug-04 06:29N 48°31' W 122°55'0 0.0
2017-Aug-04 05:59N 48°31' W 122°55'0 0.0
2017-Aug-04 05:26N 48°31' W 122°55'0 0.0
2017-Aug-04 04:59N 48°31' W 122°55'0 0.0
2017-Aug-04 04:29N 48°31' W 122°55'0 0.0
2017-Aug-04 03:53N 48°31' W 122°55'0 0.0
2017-Aug-04 03:29N 48°31' W 122°55'0 0.0
2017-Aug-04 02:56N 48°31' W 122°55'0 0.0
2017-Aug-04 02:26N 48°31' W 122°55'0 0.0
2017-Aug-04 01:59N 48°31' W 122°55'0 0.0
2017-Aug-04 01:29N 48°31' W 122°55'0 0.0
2017-Aug-04 00:59N 48°31' W 122°55'0 0.0
2017-Aug-04 00:29N 48°31' W 122°55'0 0.0
2017-Aug-03 23:59N 48°31' W 122°55'0 0.0
2017-Aug-03 23:29N 48°31' W 122°55'0 0.0
2017-Aug-03 22:47N 48°31' W 122°55'0 0.0
2017-Aug-03 22:23N 48°31' W 122°55'0 0.0
2017-Aug-03 21:59N 48°31' W 122°55'0 0.0
2017-Aug-03 21:29N 48°31' W 122°55'0 0.0
2017-Aug-03 20:59N 48°31' W 122°55'0 0.0
2017-Aug-03 20:29N 48°31' W 122°55'0 0.0
2017-Aug-03 19:59N 48°31' W 122°55'0 0.0
2017-Aug-03 19:29N 48°31' W 122°55'0 0.0
2017-Aug-03 18:59N 48°31' W 122°55'0 0.0
2017-Aug-03 18:29N 48°31' W 122°55'0 0.0
2017-Aug-03 17:59N 48°31' W 122°55'0 0.0
2017-Aug-03 17:29N 48°31' W 122°55'0 0.0
2017-Aug-03 16:59N 48°31' W 122°55'0 0.0
2017-Aug-03 16:29N 48°31' W 122°55'0 0.0
2017-Aug-03 15:56N 48°31' W 122°55'0 0.0
2017-Aug-03 15:29N 48°31' W 122°55'0 0.0
2017-Aug-03 14:56N 48°31' W 122°55'0 0.0
2017-Aug-03 13:56N 48°31' W 122°55'0 0.0
2017-Aug-03 13:26N 48°31' W 122°55'0 0.0
2017-Aug-03 12:59N 48°31' W 122°55'0 0.0
2017-Aug-03 12:29N 48°31' W 122°55'0 0.0
2017-Aug-03 11:56N 48°31' W 122°55'0 0.0
2017-Aug-03 11:29N 48°31' W 122°55'0 0.0
2017-Aug-03 10:59N 48°31' W 122°55'0 0.0
2017-Aug-03 10:23N 48°31' W 122°55'0 0.0
2017-Aug-03 09:59N 48°31' W 122°55'0 0.0
2017-Aug-03 09:29N 48°31' W 122°55'0 0.0
2017-Aug-03 08:59N 48°31' W 122°55'0 0.0
2017-Aug-03 08:29N 48°31' W 122°55'0 0.0
2017-Aug-03 07:59N 48°31' W 122°55'0 0.0
2017-Aug-03 07:29N 48°31' W 122°55'0 0.0
2017-Aug-03 06:59N 48°31' W 122°55'0 0.0
2017-Aug-03 06:29N 48°31' W 122°55'0 0.0
2017-Aug-03 05:59N 48°31' W 122°55'0 0.0
2017-Aug-03 05:29N 48°31' W 122°55'0 0.0
2017-Aug-03 04:53N 48°31' W 122°55'0 0.0
2017-Aug-03 04:29N 48°31' W 122°55'0 0.0
2017-Aug-03 03:59N 48°31' W 122°55'0 0.0
2017-Aug-03 03:29N 48°31' W 122°55'0 0.0
2017-Aug-03 02:56N 48°31' W 122°55'0 0.0
2017-Aug-03 02:29N 48°31' W 122°55'0 0.0
2017-Aug-03 01:59N 48°31' W 122°55'0 0.0
2017-Aug-03 01:29N 48°31' W 122°55'0 0.0
2017-Aug-03 00:59N 48°31' W 122°55'0 0.0
2017-Aug-03 00:29N 48°31' W 122°55'0 0.0
2017-Aug-02 23:59N 48°31' W 122°55'0 0.0
2017-Aug-02 23:29N 48°31' W 122°55'0 0.0
2017-Aug-02 22:59N 48°31' W 122°55'0 0.0
2017-Aug-02 22:29N 48°31' W 122°55'0 0.0
2017-Aug-02 21:59N 48°31' W 122°55'0 0.1
2017-Aug-02 21:29N 48°31' W 122°55'0 0.9
2017-Aug-02 21:00N 48°31' W 122°55'3 5.7
2017-Aug-02 20:30N 48°33' W 122°59'9 7.8
2017-Aug-02 19:22N 48°37' W 123°10'1 1.4
2017-Aug-02 18:43N 48°37' W 123°09'0 0.0
2017-Aug-02 18:28N 48°37' W 123°09'0 0.0
2017-Aug-02 17:55N 48°37' W 123°09'0 0.0
2017-Aug-02 17:25N 48°37' W 123°09'0 0.0
2017-Aug-02 16:46N 48°37' W 123°09'0 0.0
2017-Aug-02 16:19N 48°37' W 123°09'0 0.0
2017-Aug-02 15:52N 48°37' W 123°09'0 0.0
2017-Aug-02 15:22N 48°37' W 123°09'0 0.0
2017-Aug-02 14:58N 48°37' W 123°09'0 0.0
2017-Aug-02 12:58N 48°37' W 123°09'0 0.0
2017-Aug-02 12:28N 48°37' W 123°09'0 0.0
2017-Aug-02 11:58N 48°37' W 123°09'0 0.0
2017-Aug-02 11:28N 48°37' W 123°09'0 0.0
2017-Aug-02 10:55N 48°37' W 123°09'0 0.0
2017-Aug-02 10:28N 48°37' W 123°09'0 0.0
2017-Aug-02 09:52N 48°37' W 123°09'0 0.0
2017-Aug-02 09:28N 48°37' W 123°09'0 0.0
2017-Aug-02 08:55N 48°37' W 123°09'0 0.0
2017-Aug-02 08:28N 48°37' W 123°09'0 0.0
2017-Aug-02 07:49N 48°37' W 123°09'0 0.0
2017-Aug-02 07:28N 48°37' W 123°09'0 0.0
2017-Aug-02 06:43N 48°37' W 123°09'0 0.0
2017-Aug-02 06:25N 48°37' W 123°09'0 0.0
2017-Aug-02 05:58N 48°37' W 123°09'0 0.0
2017-Aug-02 05:28N 48°37' W 123°09'0 0.0
2017-Aug-02 04:55N 48°37' W 123°09'0 0.0
2017-Aug-02 04:22N 48°37' W 123°09'0 0.0
2017-Aug-02 03:58N 48°37' W 123°09'0 0.0
2017-Aug-02 01:55N 48°37' W 123°09'  
2017-Jul-29 18:38N 48°36' W 123°20'1 9.2
2017-Jul-29 18:28N 48°35' W 123°19'4 9.1
2017-Jul-29 18:00N 48°31' W 123°17'5 9.9
2017-Jul-29 17:30N 48°26' W 123°13'5 9.7
2017-Jul-29 17:00N 48°23' W 123°19'  

Dump ship's entire track history